Time;durP1;ratioP1;P1;durP2;ratioP2;P2;SDS_P1;SDS_P2;PMS_P1;PMS_P2;Temp;Humidity;BMP_temperature;BMP_pressure;BME280_temperature;BME280_humidity;BME280_pressure;Samples;Min_cycle;Max_cycle;Signal;HPM_P1;HPM_P2
2022/01/16 00:04:06;;;;;;;86.75;43.72;;;1.50;84.00;;;;;;5035787;28;20049;-88
2022/01/16 00:04:57;;;;;;;69.43;40.90;;;1.50;84.00;;;;;;5025052;28;20049;-89
2022/01/16 00:07:24;;;;;;;83.03;42.30;;;1.40;84.00;;;;;;5034424;28;20575;-89
2022/01/16 00:09:51;;;;;;;79.10;41.58;;;1.50;84.00;;;;;;5035113;28;20059;-88
2022/01/16 00:12:19;;;;;;;80.70;42.42;;;1.40;84.00;;;;;;5035265;28;20064;-90
2022/01/16 00:14:46;;;;;;;72.35;40.83;;;1.40;84.00;;;;;;5037437;28;20053;-90
2022/01/16 00:17:14;;;;;;;76.93;41.15;;;1.50;84.00;;;;;;5042555;28;20051;-89
2022/01/16 00:19:41;;;;;;;69.57;41.17;;;1.40;84.00;;;;;;5038015;28;20052;-89
2022/01/16 00:22:13;;;;;;;78.45;42.28;;;1.40;84.00;;;;;;5034422;28;20064;-89
2022/01/16 00:24:41;;;;;;;78.55;41.53;;;1.40;84.00;;;;;;5014985;28;20435;-90
2022/01/16 00:27:09;;;;;;;80.75;40.83;;;1.40;84.00;;;;;;5033898;28;20053;-89
2022/01/16 00:29:36;;;;;;;81.38;43.47;;;1.40;84.00;;;;;;5045280;28;20052;-89
2022/01/16 00:32:03;;;;;;;72.53;41.08;;;1.40;84.00;;;;;;5047225;28;20391;-90
2022/01/16 00:34:30;;;;;;;74.53;41.85;;;1.40;84.00;;;;;;5036037;28;20048;-89
2022/01/16 00:36:57;;;;;;;80.15;41.90;;;1.40;84.00;;;;;;5034552;28;20065;-89
2022/01/16 00:39:24;;;;;;;83.38;42.38;;;1.40;84.00;;;;;;5034241;28;20049;-89
2022/01/16 00:41:52;;;;;;;81.05;42.72;;;1.40;84.00;;;;;;5042129;28;20060;-89
2022/01/16 00:44:21;;;;;;;85.82;43.53;;;1.40;84.10;;;;;;5043540;28;20486;-89
2022/01/16 00:46:48;;;;;;;79.43;43.70;;;1.40;84.10;;;;;;5053017;28;20052;-89
2022/01/16 00:49:15;;;;;;;78.32;41.95;;;1.40;84.10;;;;;;5053740;28;20071;-90
2022/01/16 00:51:42;;;;;;;79.53;41.88;;;1.40;84.10;;;;;;5034177;28;20080;-90
2022/01/16 00:54:10;;;;;;;80.53;42.92;;;1.40;84.20;;;;;;5041001;28;20042;-89
2022/01/16 00:56:37;;;;;;;79.13;42.53;;;1.40;84.20;;;;;;5033318;28;20582;-88
2022/01/16 00:59:04;;;;;;;80.90;43.58;;;1.40;84.20;;;;;;5035084;28;20046;-89
2022/01/16 01:01:31;;;;;;;81.55;43.10;;;1.40;84.20;;;;;;5034616;28;20802;-89
2022/01/16 01:03:59;;;;;;;78.72;43.28;;;1.40;84.20;;;;;;5034326;28;20049;-89
2022/01/16 01:06:26;;;;;;;83.47;43.40;;;1.40;84.30;;;;;;5035892;28;20064;-89
2022/01/16 01:08:53;;;;;;;80.68;42.90;;;1.40;84.30;;;;;;5034362;28;20049;-88
2022/01/16 01:11:26;;;;;;;81.93;43.55;;;1.40;84.30;;;;;;5035919;28;20050;-89
2022/01/16 01:16:48;;;;;;;83.60;43.30;;;1.50;84.40;;;;;;5034400;28;20048;-88
2022/01/16 01:19:16;;;;;;;87.72;44.83;;;1.40;84.40;;;;;;5028745;28;20049;-89
2022/01/16 01:21:43;;;;;;;88.35;44.10;;;1.50;84.40;;;;;;5033302;28;20506;-88
2022/01/16 01:24:10;;;;;;;83.20;42.50;;;1.40;84.40;;;;;;5035266;28;20053;-91
2022/01/16 01:26:47;;;;;;;82.05;43.30;;;1.50;84.40;;;;;;5034413;28;20563;-90
2022/01/16 01:29:18;;;;;;;84.90;42.97;;;1.50;84.50;;;;;;5034037;28;20391;-90
2022/01/16 01:31:45;;;;;;;85.68;42.90;;;1.50;84.50;;;;;;5038160;28;20047;-90
2022/01/16 01:34:12;;;;;;;84.43;43.03;;;1.50;84.50;;;;;;5052492;28;20048;-89
2022/01/16 01:36:40;;;;;;;82.82;40.85;;;1.50;84.50;;;;;;5035025;28;20532;-89
2022/01/16 01:39:07;;;;;;;92.30;44.25;;;1.50;84.50;;;;;;5035232;28;20041;-91
2022/01/16 01:41:35;;;;;;;96.65;43.70;;;1.50;84.60;;;;;;5035378;28;20053;-90
2022/01/16 01:52:20;;;;;;;106.25;45.22;;;1.60;84.80;;;;;;5031954;28;20045;-88
2022/01/16 01:54:48;;;;;;;107.07;44.42;;;1.70;84.80;;;;;;5032789;28;20060;-88
2022/01/16 01:57:15;;;;;;;104.53;44.15;;;1.70;84.90;;;;;;5035066;28;20041;-88
2022/01/16 01:59:42;;;;;;;104.18;44.08;;;1.70;85.00;;;;;;5033656;28;20107;-88
2022/01/16 02:02:10;;;;;;;105.78;44.95;;;1.70;85.00;;;;;;5033358;28;20506;-87
2022/01/16 02:04:37;;;;;;;101.25;44.92;;;1.80;85.10;;;;;;5032026;28;20095;-87
2022/01/16 02:07:04;;;;;;;109.05;44.83;;;1.80;85.10;;;;;;5032775;28;20060;-87
2022/01/16 02:09:32;;;;;;;113.90;44.63;;;1.90;85.10;;;;;;5034778;28;20060;-87
2022/01/16 02:12:00;;;;;;;117.88;43.58;;;1.90;85.20;;;;;;5033406;28;20045;-87
2022/01/16 02:28:19;;;;;;;135.80;45.65;;;2.00;85.30;;;;;;5032153;28;20132;-87
2022/01/16 02:36:27;;;;;;;142.82;45.55;;;2.10;85.40;;;;;;5032967;28;20048;-87
2022/01/16 02:39:06;;;;;;;;;;;2.10;85.40;;;;;;5034805;28;20573;-87
2022/01/16 02:41:33;;;;;;;138.02;44.13;;;2.10;85.50;;;;;;5032943;28;19931;-86
2022/01/16 02:44:10;;;;;;;136.38;44.28;;;2.20;85.50;;;;;;5033054;28;20041;-86
2022/01/16 02:46:39;;;;;;;126.82;44.33;;;2.20;85.50;;;;;;5018056;28;20498;-86
2022/01/16 02:49:35;;;;;;;122.75;43.78;;;2.20;85.50;;;;;;5031681;28;20046;-87
2022/01/16 02:52:05;;;;;;;131.02;42.95;;;2.20;85.60;;;;;;5030240;28;20417;-87
2022/01/16 02:54:35;;;;;;;130.18;43.83;;;2.20;85.60;;;;;;5014473;28;20042;-86
2022/01/16 02:57:04;;;;;;;138.27;43.00;;;2.20;85.60;;;;;;5032164;28;20056;-86
2022/01/16 02:59:31;;;;;;;132.93;43.00;;;2.30;85.70;;;;;;5030774;28;20052;-87
2022/01/16 03:02:00;;;;;;;117.85;41.75;;;2.30;85.70;;;;;;5031658;28;20051;-87
2022/01/16 03:04:29;;;;;;;113.43;39.65;;;2.30;85.70;;;;;;5034827;28;20073;-86
2022/01/16 03:06:59;;;;;;;113.80;41.70;;;2.30;85.70;;;;;;5033875;28;20059;-87
2022/01/16 03:09:35;;;;;;;108.45;40.30;;;2.30;85.70;;;;;;5034328;28;20045;-86
2022/01/16 03:12:07;;;;;;;119.75;41.92;;;2.30;85.70;;;;;;5034712;28;20061;-86
2022/01/16 03:14:34;;;;;;;126.43;41.55;;;2.30;85.70;;;;;;5034286;28;20514;-87
2022/01/16 03:17:01;;;;;;;121.15;42.45;;;2.30;85.60;;;;;;5034190;28;20050;-86
2022/01/16 03:22:34;;;;;;;113.70;39.00;;;2.40;85.60;;;;;;4956246;28;20514;-87
2022/01/16 03:25:01;;;;;;;116.47;42.75;;;2.30;85.60;;;;;;4951355;29;20151;-87
2022/01/16 03:27:28;;;;;;;123.10;42.85;;;2.30;85.70;;;;;;4954619;28;20058;-86
2022/01/16 03:29:57;;;;;;;124.55;43.63;;;2.30;85.70;;;;;;4936940;29;20067;-86
2022/01/16 03:32:24;;;;;;;120.70;42.15;;;2.30;85.70;;;;;;4936452;29;20074;-87
2022/01/16 03:34:51;;;;;;;136.95;44.15;;;2.40;85.80;;;;;;4941239;29;20524;-87
2022/01/16 03:37:18;;;;;;;131.32;43.58;;;2.40;85.80;;;;;;4938416;29;20548;-86
2022/01/16 03:39:45;;;;;;;139.38;44.53;;;2.40;85.80;;;;;;4935873;29;20489;-87
2022/01/16 03:42:13;;;;;;;132.82;40.80;;;2.40;85.90;;;;;;4936764;29;20061;-87
2022/01/16 03:44:40;;;;;;;134.10;42.75;;;2.40;85.90;;;;;;4936530;29;20054;-87
2022/01/16 03:47:07;;;;;;;149.07;43.88;;;2.40;86.00;;;;;;4936351;29;20055;-87
2022/01/16 03:49:34;;;;;;;144.73;43.53;;;2.50;86.00;;;;;;4936541;29;20054;-88
2022/01/16 03:52:02;;;;;;;132.20;41.47;;;2.50;86.00;;;;;;4935878;29;20051;-87
2022/01/16 03:54:31;;;;;;;134.05;41.33;;;2.50;86.00;;;;;;5012225;28;20046;-88
2022/01/16 03:56:58;;;;;;;125.97;41.20;;;2.50;86.00;;;;;;5016293;28;20408;-87
2022/01/16 03:59:26;;;;;;;115.07;39.72;;;2.50;86.00;;;;;;5015864;28;20054;-88
2022/01/16 04:01:53;;;;;;;130.25;39.22;;;2.50;86.00;;;;;;5018219;28;20057;-87
2022/01/16 04:04:21;;;;;;;133.63;40.85;;;2.50;86.00;;;;;;5015927;28;20053;-88
2022/01/16 04:06:48;;;;;;;121.22;40.22;;;2.50;86.00;;;;;;5015165;28;20086;-87
2022/01/16 04:09:15;;;;;;;126.82;40.58;;;2.50;86.10;;;;;;5031996;28;20532;-88
2022/01/16 04:11:52;;;;;;;131.80;40.80;;;2.60;86.00;;;;;;5036903;28;20163;-88
2022/01/16 04:17:06;;;;;;;133.60;40.83;;;2.60;86.10;;;;;;5041422;28;20041;-87
2022/01/16 04:19:33;;;;;;;129.82;41.38;;;2.60;86.10;;;;;;5052971;28;20046;-87
2022/01/16 04:22:00;;;;;;;112.28;39.88;;;2.60;86.10;;;;;;5038903;28;20057;-88
2022/01/16 04:24:27;;;;;;;132.05;40.08;;;2.60;86.10;;;;;;5034077;28;20053;-88
2022/01/16 04:26:54;;;;;;;136.15;41.58;;;2.60;86.10;;;;;;5034989;28;20449;-88
2022/01/16 04:29:21;;;;;;;132.10;40.78;;;2.60;86.10;;;;;;5034864;28;20041;-87
2022/01/16 04:31:48;;;;;;;147.40;43.83;;;2.60;86.10;;;;;;5035459;28;20068;-88
2022/01/16 04:34:15;;;;;;;121.60;38.67;;;2.60;86.10;;;;;;5033627;28;20041;-87
2022/01/16 04:36:42;;;;;;;115.72;40.08;;;2.60;86.10;;;;;;5034387;28;20053;-87
2022/01/16 04:39:15;;;;;;;143.20;41.72;;;2.60;86.10;;;;;;5035105;28;20038;-87
2022/01/16 04:44:28;;;;;;;111.65;39.30;;;2.70;86.10;;;;;;5034403;28;20041;-87
2022/01/16 04:46:55;;;;;;;127.75;42.05;;;2.60;86.10;;;;;;5071218;28;20052;-87
2022/01/16 04:49:23;;;;;;;116.70;40.40;;;2.60;86.10;;;;;;5035986;28;20132;-86
2022/01/16 04:51:50;;;;;;;114.93;40.28;;;2.70;86.20;;;;;;5033074;28;20053;-86
2022/01/16 04:54:17;;;;;;;123.47;39.70;;;2.70;86.20;;;;;;5034609;28;20046;-86
2022/01/16 04:56:44;;;;;;;119.00;39.67;;;2.70;86.20;;;;;;5034757;28;20417;-86
2022/01/16 04:59:11;;;;;;;114.75;41.55;;;2.70;86.20;;;;;;5034343;28;20041;-87
2022/01/16 05:01:39;;;;;;;122.55;40.15;;;2.70;86.20;;;;;;5067845;28;20084;-87
2022/01/16 05:04:06;;;;;;;114.25;42.30;;;2.70;86.20;;;;;;5033863;28;20046;-87
2022/01/16 05:06:33;;;;;;;110.72;40.30;;;2.70;86.20;;;;;;5034459;28;20414;-88
2022/01/16 05:09:00;;;;;;;110.18;38.97;;;2.70;86.20;;;;;;5034478;28;20053;-86
2022/01/16 05:11:27;;;;;;;116.20;39.70;;;2.70;86.20;;;;;;5033185;28;20057;-86
2022/01/16 05:19:08;;;;;;;122.88;42.53;;;2.70;86.20;;;;;;5029630;28;20494;-86
2022/01/16 05:21:37;;;;;;;124.40;46.17;;;2.70;86.20;;;;;;5033304;28;20054;-87
2022/01/16 05:24:09;;;;;;;108.15;42.63;;;2.70;86.20;;;;;;5032926;28;20053;-87
2022/01/16 05:26:42;;;;;;;108.13;42.92;;;2.70;86.20;;;;;;5033573;28;20041;-87
2022/01/16 05:29:10;;;;;;;117.15;41.75;;;2.70;86.20;;;;;;5033138;28;20459;-87
2022/01/16 05:31:44;;;;;;;130.27;46.15;;;2.70;86.20;;;;;;5033845;28;20407;-87
2022/01/16 05:34:12;;;;;;;;;;;2.70;86.20;;;;;;5033513;28;20521;-87
2022/01/16 05:36:39;;;;;;;110.90;43.97;;;2.70;86.20;;;;;;5033644;28;19920;-87
2022/01/16 05:39:06;;;;;;;107.20;44.40;;;2.70;86.20;;;;;;5033742;28;20128;-86
2022/01/16 05:41:33;;;;;;;122.68;46.15;;;2.70;86.20;;;;;;5033444;28;20425;-87
2022/01/16 05:44:00;;;;;;;106.35;43.05;;;2.70;86.30;;;;;;5033843;28;20444;-87
2022/01/16 05:46:28;;;;;;;111.80;45.38;;;2.70;86.30;;;;;;5033818;28;20434;-87
2022/01/16 05:48:55;;;;;;;105.30;45.05;;;2.70;86.30;;;;;;5031826;28;20103;-87
2022/01/16 05:51:22;;;;;;;104.32;42.58;;;2.70;86.30;;;;;;5035877;28;20048;-87
2022/01/16 05:53:51;;;;;;;111.10;46.60;;;2.70;86.30;;;;;;5035070;28;20053;-88
2022/01/16 05:56:18;;;;;;;106.50;43.83;;;2.70;86.30;;;;;;5065260;28;20059;-87
2022/01/16 05:58:45;;;;;;;106.13;45.42;;;2.70;86.30;;;;;;5033777;28;20053;-87
2022/01/16 06:01:12;;;;;;;101.78;44.63;;;2.70;86.20;;;;;;5031378;28;20049;-88
2022/01/16 06:03:39;;;;;;;96.68;42.30;;;2.60;86.30;;;;;;5034785;28;20494;-89
2022/01/16 06:06:07;;;;;;;96.28;43.50;;;2.60;86.30;;;;;;5032359;28;20532;-88
2022/01/16 06:08:36;;;;;;;99.82;43.28;;;2.60;86.20;;;;;;5032145;28;20229;-88
2022/01/16 06:11:03;;;;;;;104.22;45.20;;;2.60;86.20;;;;;;5034501;28;20045;-89
2022/01/16 06:13:31;;;;;;;98.93;43.65;;;2.60;86.20;;;;;;5035131;28;20049;-86
2022/01/16 06:15:58;;;;;;;97.13;42.35;;;2.60;86.20;;;;;;5032806;28;20080;-87
2022/01/16 06:18:25;;;;;;;92.47;42.95;;;2.60;86.20;;;;;;5033271;28;20084;-87
2022/01/16 06:20:52;;;;;;;95.35;41.38;;;2.60;86.20;;;;;;5033583;28;20065;-87
2022/01/16 06:23:19;;;;;;;85.07;42.47;;;2.60;86.20;;;;;;5033080;28;20046;-87
2022/01/16 06:25:54;;;;;;;88.45;43.65;;;2.60;86.20;;;;;;5032981;28;20042;-87
2022/01/16 06:28:23;;;;;;;84.10;41.33;;;2.60;86.20;;;;;;5033210;28;20422;-87
2022/01/16 06:30:50;;;;;;;94.80;43.45;;;2.60;86.20;;;;;;5032307;28;20053;-87
2022/01/16 06:33:17;;;;;;;89.05;41.67;;;2.50;86.20;;;;;;5033058;28;20045;-87
2022/01/16 06:35:45;;;;;;;79.88;43.55;;;2.50;86.20;;;;;;5033627;28;20049;-87
2022/01/16 06:38:12;;;;;;;85.55;41.50;;;2.50;86.20;;;;;;5039288;28;20048;-87
2022/01/16 06:40:39;;;;;;;76.80;42.13;;;2.50;86.10;;;;;;5071180;28;20053;-87
2022/01/16 06:43:06;;;;;;;83.32;42.63;;;2.50;86.20;;;;;;5038726;28;20053;-87
2022/01/16 06:45:33;;;;;;;73.25;40.92;;;2.50;86.10;;;;;;5039273;28;20050;-87
2022/01/16 06:48:00;;;;;;;75.68;42.13;;;2.50;86.10;;;;;;5039564;28;20096;-87
2022/01/16 06:50:27;;;;;;;80.35;41.70;;;2.50;86.10;;;;;;5039391;28;20057;-87
2022/01/16 06:52:54;;;;;;;74.97;41.42;;;2.40;86.10;;;;;;5039643;28;20056;-88
2022/01/16 06:55:22;;;;;;;75.55;41.75;;;2.40;86.10;;;;;;5038277;28;20119;-87
2022/01/16 06:57:49;;;;;;;78.68;39.60;;;2.40;86.00;;;;;;5038769;28;20045;-88
2022/01/16 07:00:16;;;;;;;71.57;40.88;;;2.40;86.00;;;;;;5038234;28;20623;-87
2022/01/16 07:02:43;;;;;;;75.60;41.70;;;2.40;86.00;;;;;;5071292;28;20061;-87
2022/01/16 07:05:11;;;;;;;78.68;42.00;;;2.40;86.00;;;;;;5039407;28;20048;-87
2022/01/16 07:07:38;;;;;;;78.38;41.25;;;2.30;85.90;;;;;;5038667;28;20044;-86
2022/01/16 07:10:05;;;;;;;78.35;42.10;;;2.30;85.90;;;;;;5037091;28;20060;-88
2022/01/16 07:12:33;;;;;;;87.28;44.25;;;2.30;85.90;;;;;;5040264;28;20053;-88
2022/01/16 07:15:00;;;;;;;75.38;42.53;;;2.30;85.90;;;;;;5040681;28;20046;-88
2022/01/16 07:17:27;;;;;;;73.20;41.67;;;2.20;85.90;;;;;;5039237;28;20064;-87
2022/01/16 07:19:54;;;;;;;81.50;44.05;;;2.20;85.90;;;;;;5071315;28;20049;-87
2022/01/16 07:22:21;;;;;;;78.28;42.00;;;2.20;85.90;;;;;;5038948;28;20053;-87
2022/01/16 07:24:50;;;;;;;76.07;41.63;;;2.20;85.90;;;;;;5037282;28;20046;-87
2022/01/16 07:27:18;;;;;;;73.07;42.30;;;2.20;85.90;;;;;;5039184;28;20494;-88
2022/01/16 07:29:45;;;;;;;79.95;42.35;;;2.20;85.90;;;;;;5038131;28;20045;-87
2022/01/16 07:32:13;;;;;;;76.43;43.25;;;2.10;85.80;;;;;;5039106;28;20132;-86
2022/01/16 07:34:40;;;;;;;75.55;42.92;;;2.10;85.90;;;;;;5040662;28;20049;-87
2022/01/16 07:37:07;;;;;;;78.53;44.08;;;2.10;85.90;;;;;;5038015;28;20049;-87
2022/01/16 07:39:34;;;;;;;74.90;42.75;;;2.10;85.90;;;;;;5040309;28;20502;-88
2022/01/16 07:42:01;;;;;;;82.75;43.25;;;2.10;85.90;;;;;;5072478;28;20049;-87
2022/01/16 07:44:28;;;;;;;82.85;44.03;;;2.10;85.90;;;;;;5072372;28;20042;-87
2022/01/16 07:46:55;;;;;;;82.53;43.90;;;2.00;85.90;;;;;;5039022;28;20057;-87
2022/01/16 07:49:22;;;;;;;83.25;45.10;;;2.00;85.90;;;;;;5036111;28;20407;-88
2022/01/16 07:51:49;;;;;;;88.03;45.10;;;2.00;85.90;;;;;;5036281;28;20053;-88
2022/01/16 07:54:18;;;;;;;87.88;44.38;;;2.00;85.90;;;;;;5034782;28;20076;-88
2022/01/16 07:56:46;;;;;;;80.20;42.45;;;2.00;85.90;;;;;;5035296;28;20057;-87
2022/01/16 07:59:14;;;;;;;79.32;41.45;;;2.00;85.90;;;;;;5036824;28;20052;-87
2022/01/16 08:01:41;;;;;;;82.32;42.08;;;2.00;85.90;;;;;;5035793;28;20045;-86
2022/01/16 08:04:08;;;;;;;77.70;39.88;;;2.00;85.90;;;;;;5035000;28;20472;-87
2022/01/16 08:06:35;;;;;;;81.22;40.33;;;2.00;85.90;;;;;;5040008;28;20072;-87
2022/01/16 08:09:03;;;;;;;80.03;41.45;;;2.00;85.90;;;;;;5035642;28;20059;-88
2022/01/16 08:11:30;;;;;;;77.32;40.42;;;2.00;85.90;;;;;;5034600;28;20045;-87
2022/01/16 08:13:57;;;;;;;87.57;40.47;;;2.00;85.90;;;;;;5035672;28;20045;-88
2022/01/16 08:16:24;;;;;;;82.57;40.75;;;2.00;85.90;;;;;;5035553;28;20062;-87
2022/01/16 08:18:51;;;;;;;85.32;41.63;;;2.00;85.90;;;;;;5034830;28;20046;-87
2022/01/16 08:21:19;;;;;;;85.10;42.10;;;2.00;85.90;;;;;;5034907;28;20049;-87
2022/01/16 08:23:46;;;;;;;74.68;39.60;;;2.00;85.90;;;;;;5034119;28;20045;-88
2022/01/16 08:26:14;;;;;;;76.60;39.70;;;2.00;86.00;;;;;;5034352;28;20437;-87
2022/01/16 08:28:41;;;;;;;76.93;40.33;;;2.00;86.00;;;;;;5034264;28;20137;-87
2022/01/16 08:31:08;;;;;;;82.32;37.85;;;2.00;86.00;;;;;;5034426;28;20067;-87
2022/01/16 08:33:35;;;;;;;80.05;39.75;;;2.00;86.00;;;;;;5033995;28;20073;-87
2022/01/16 08:36:02;;;;;;;71.97;37.10;;;2.00;86.00;;;;;;5034793;28;20048;-88
2022/01/16 08:38:30;;;;;;;74.65;38.13;;;2.00;86.00;;;;;;5036441;28;20057;-88
2022/01/16 08:40:58;;;;;;;80.10;38.47;;;2.00;86.00;;;;;;5033727;28;20053;-88
2022/01/16 08:43:27;;;;;;;73.18;37.50;;;2.00;86.00;;;;;;5033789;28;20057;-87
2022/01/16 08:45:54;;;;;;;75.40;36.58;;;2.00;86.00;;;;;;5034188;28;20045;-87
2022/01/16 08:48:22;;;;;;;84.20;39.28;;;2.00;86.00;;;;;;5034864;28;20056;-87
2022/01/16 08:50:49;;;;;;;79.07;37.35;;;2.00;86.10;;;;;;5033343;28;20421;-87
2022/01/16 08:53:16;;;;;;;75.15;36.10;;;2.00;86.10;;;;;;5034780;28;20051;-87
2022/01/16 08:55:43;;;;;;;81.03;37.42;;;2.00;86.10;;;;;;5031451;28;20037;-86
2022/01/16 08:58:10;;;;;;;79.90;37.20;;;2.00;86.20;;;;;;5032818;28;20084;-86
2022/01/16 09:00:37;;;;;;;77.93;36.65;;;2.10;86.20;;;;;;5033920;28;20407;-86
2022/01/16 09:03:05;;;;;;;79.15;37.17;;;2.10;86.20;;;;;;5034011;28;20081;-86
2022/01/16 09:05:32;;;;;;;74.55;35.55;;;2.10;86.20;;;;;;5033693;28;20045;-87
2022/01/16 09:07:59;;;;;;;80.05;35.65;;;2.10;86.20;;;;;;5065617;28;20049;-87
2022/01/16 09:10:26;;;;;;;75.45;36.20;;;2.10;86.20;;;;;;5034133;28;20063;-87
2022/01/16 09:12:53;;;;;;;72.28;35.88;;;2.10;86.20;;;;;;5032988;28;20049;-87
2022/01/16 09:15:21;;;;;;;77.82;36.65;;;2.20;86.20;;;;;;5033555;28;20506;-87
2022/01/16 09:17:48;;;;;;;76.20;35.50;;;2.20;86.30;;;;;;5033918;28;20048;-86
2022/01/16 09:20:16;;;;;;;77.55;35.70;;;2.20;86.30;;;;;;5033728;28;20135;-87
2022/01/16 09:22:45;;;;;;;80.15;35.95;;;2.20;86.30;;;;;;5033439;28;20541;-87
2022/01/16 09:25:14;;;;;;;75.68;35.97;;;2.20;86.30;;;;;;5032936;28;20053;-86
2022/01/16 09:27:41;;;;;;;75.70;35.17;;;2.30;86.30;;;;;;5033273;28;20060;-87
2022/01/16 09:30:10;;;;;;;77.65;36.45;;;2.30;86.30;;;;;;5065163;28;20045;-86
2022/01/16 09:32:37;;;;;;;76.80;35.53;;;2.30;86.30;;;;;;5033442;28;20053;-86
2022/01/16 09:35:06;;;;;;;66.80;33.20;;;2.30;86.30;;;;;;5065226;28;20041;-87
2022/01/16 09:37:33;;;;;;;65.68;33.85;;;2.40;86.30;;;;;;5016736;28;20053;-86
2022/01/16 09:40:01;;;;;;;66.95;33.85;;;2.40;86.40;;;;;;5033011;28;20049;-86
2022/01/16 09:42:28;;;;;;;67.35;32.95;;;2.40;86.30;;;;;;5034970;28;20136;-86
2022/01/16 09:44:55;;;;;;;75.88;34.88;;;2.40;86.40;;;;;;5032989;28;20037;-87
2022/01/16 09:47:23;;;;;;;65.32;33.97;;;2.40;86.30;;;;;;5033128;28;20049;-85
2022/01/16 09:49:50;;;;;;;71.43;33.13;;;2.40;86.30;;;;;;5033639;28;20073;-88
2022/01/16 09:52:18;;;;;;;66.28;32.63;;;2.40;86.30;;;;;;5031843;28;20053;-87
2022/01/16 09:54:46;;;;;;;70.90;33.45;;;2.50;86.30;;;;;;5030593;28;20064;-87
2022/01/16 09:57:13;;;;;;;67.43;32.72;;;2.50;86.30;;;;;;5033302;28;20132;-87
2022/01/16 09:59:40;;;;;;;63.90;31.08;;;2.50;86.30;;;;;;5031749;28;20051;-86
2022/01/16 10:02:09;;;;;;;62.25;31.67;;;2.50;86.30;;;;;;5032938;28;20046;-87
2022/01/16 10:04:42;;;;;;;63.20;31.40;;;2.50;86.30;;;;;;5065002;28;20041;-86
2022/01/16 10:07:13;;;;;;;65.68;32.28;;;2.50;86.30;;;;;;5032397;28;20057;-86
2022/01/16 10:09:42;;;;;;;63.15;31.77;;;2.50;86.30;;;;;;5033611;28;20058;-86
2022/01/16 10:12:15;;;;;;;65.80;31.85;;;2.60;86.30;;;;;;5032056;28;20047;-86
2022/01/16 10:14:49;;;;;;;62.90;32.72;;;2.60;86.30;;;;;;5034556;28;20520;-87
2022/01/16 10:17:24;;;;;;;62.38;31.90;;;2.60;86.30;;;;;;5032665;28;20257;-86
2022/01/16 10:20:10;;;;;;;67.60;32.10;;;2.60;86.30;;;;;;5032942;28;20056;-86
2022/01/16 10:22:43;;;;;;;66.32;31.42;;;2.60;86.30;;;;;;5017602;28;20048;-86
2022/01/16 10:25:11;;;;;;;69.22;32.53;;;2.60;86.30;;;;;;5032011;28;20502;-86
2022/01/16 10:27:41;;;;;;;63.28;32.42;;;2.60;86.30;;;;;;5033177;28;20049;-87
2022/01/16 10:30:13;;;;;;;58.53;29.75;;;2.70;86.30;;;;;;5032817;28;20052;-86
2022/01/16 10:32:43;;;;;;;55.20;28.90;;;2.70;86.30;;;;;;5031269;28;20128;-86
2022/01/16 10:35:22;;;;;;;64.20;31.23;;;2.70;86.30;;;;;;5032307;28;20436;-86
2022/01/16 10:37:56;;;;;;;59.78;31.15;;;2.70;86.20;;;;;;5032893;28;20049;-86
2022/01/16 10:40:31;;;;;;;60.25;28.92;;;2.70;86.20;;;;;;5032100;28;20052;-86
2022/01/16 10:43:04;;;;;;;58.60;30.35;;;2.80;86.20;;;;;;5031508;28;20049;-85
2022/01/16 10:45:33;;;;;;;57.33;29.02;;;2.70;86.20;;;;;;5031933;28;20085;-88
2022/01/16 10:48:03;;;;;;;54.72;30.23;;;2.80;86.30;;;;;;5064431;28;20049;-87
2022/01/16 10:50:32;;;;;;;57.08;29.92;;;2.80;86.20;;;;;;5032214;28;20049;-86
2022/01/16 10:53:05;;;;;;;53.92;28.92;;;2.80;86.20;;;;;;5034090;28;20053;-86
2022/01/16 10:55:38;;;;;;;60.33;29.40;;;2.90;86.30;;;;;;5032634;28;20048;-86
2022/01/16 10:58:06;;;;;;;62.38;29.55;;;2.90;86.30;;;;;;5027667;28;20053;-87
2022/01/16 11:00:36;;;;;;;54.53;29.13;;;2.90;86.30;;;;;;5031924;28;20041;-86
2022/01/16 11:03:06;;;;;;;53.30;29.77;;;2.90;86.20;;;;;;5032628;28;20046;-87
2022/01/16 11:05:39;;;;;;;55.20;29.38;;;2.90;86.30;;;;;;5032356;28;20045;-86
2022/01/16 11:08:19;;;;;;;51.03;27.80;;;2.90;86.30;;;;;;5032298;28;20056;-87
2022/01/16 11:10:48;;;;;;;52.53;26.92;;;3.00;86.30;;;;;;5025302;28;20490;-86
2022/01/16 11:13:18;;;;;;;51.45;27.95;;;3.00;86.20;;;;;;5031809;28;20440;-85
2022/01/16 11:15:54;;;;;;;52.47;30.00;;;3.00;86.20;;;;;;5029246;28;20041;-87
2022/01/16 11:18:24;;;;;;;52.90;29.25;;;3.00;86.20;;;;;;5032218;28;20099;-86
2022/01/16 11:21:31;;;;;;;47.70;27.00;;;3.10;86.20;;;;;;5033635;28;20042;-86
2022/01/16 11:26:16;;;;;;;51.53;28.73;;;3.10;86.20;;;;;;5035825;28;19921;-85
2022/01/16 11:28:43;;;;;;;49.33;28.23;;;3.10;86.20;;;;;;5035973;28;20433;-85
2022/01/16 11:31:12;;;;;;;52.28;29.50;;;3.20;86.20;;;;;;5034947;28;20068;-86
2022/01/16 11:33:41;;;;;;;51.80;28.60;;;3.20;86.20;;;;;;5036102;28;20042;-85
2022/01/16 11:36:12;;;;;;;47.55;26.52;;;3.20;86.20;;;;;;5034597;28;20432;-84
2022/01/16 11:38:53;;;;;;;44.55;26.38;;;3.20;86.20;;;;;;5035649;28;20045;-84
2022/01/16 11:41:33;;;;;;;44.22;25.50;;;3.20;86.20;;;;;;5034270;28;20045;-86
2022/01/16 11:44:05;;;;;;;47.05;26.52;;;3.20;86.20;;;;;;5035350;28;20045;-84
2022/01/16 11:46:49;;;;;;;43.72;26.20;;;3.30;86.20;;;;;;5034711;28;20041;-85
2022/01/16 11:49:30;;;;;;;47.55;27.83;;;3.40;86.20;;;;;;5033003;28;20103;-87
2022/01/16 11:52:03;;;;;;;48.55;26.23;;;3.40;86.20;;;;;;5034094;28;20059;-84
2022/01/16 11:54:33;;;;;;;46.95;26.80;;;3.40;86.20;;;;;;5035712;28;20055;-85
2022/01/16 11:57:19;;;;;;;45.17;27.25;;;3.40;86.20;;;;;;5035077;28;20064;-85
2022/01/16 11:59:48;;;;;;;43.38;26.35;;;3.40;86.20;;;;;;5035084;28;20042;-84
2022/01/16 12:02:18;;;;;;;39.75;24.88;;;3.40;86.10;;;;;;5035280;28;20049;-85
2022/01/16 12:04:45;;;;;;;47.08;25.95;;;3.40;86.10;;;;;;5034850;28;20049;-84
2022/01/16 12:07:12;;;;;;;42.25;25.35;;;3.50;86.10;;;;;;5034500;28;20045;-84
2022/01/16 12:09:47;;;;;;;44.72;25.38;;;3.50;86.10;;;;;;5034822;28;20063;-84
2022/01/16 12:12:14;;;;;;;43.30;25.65;;;3.50;86.10;;;;;;5034763;28;20046;-85
2022/01/16 12:14:50;;;;;;;41.17;24.58;;;3.50;86.00;;;;;;5034725;28;20514;-85
2022/01/16 12:17:31;;;;;;;42.15;24.45;;;3.50;86.00;;;;;;5035192;28;20045;-85
2022/01/16 12:22:52;;;;;;;41.17;24.52;;;3.60;86.00;;;;;;5019985;28;20088;-84
2022/01/16 12:25:56;;;;;;;40.50;24.63;;;3.60;86.00;;;;;;5018488;28;20536;-84
2022/01/16 12:28:25;;;;;;;42.17;24.80;;;3.60;86.00;;;;;;5034808;28;20050;-84
2022/01/16 12:30:59;;;;;;;39.85;24.35;;;3.60;86.00;;;;;;5033001;28;20049;-83
2022/01/16 12:33:51;;;;;;;45.53;27.77;;;3.60;86.00;;;;;;5034355;28;20107;-84
2022/01/16 12:36:22;;;;;;;46.10;27.80;;;3.70;86.00;;;;;;5066186;28;20042;-84
2022/01/16 12:38:52;;;;;;;42.60;25.58;;;3.70;86.00;;;;;;5034381;28;20054;-85
2022/01/16 12:41:38;;;;;;;44.63;24.58;;;3.70;86.00;;;;;;5033752;28;20050;-85
2022/01/16 12:44:12;;;;;;;47.28;27.20;;;3.70;86.00;;;;;;5034647;28;20051;-84
2022/01/16 12:46:52;;;;;;;44.28;27.70;;;3.70;86.10;;;;;;5019609;28;20072;-84
2022/01/16 12:49:23;;;;;;;42.85;25.17;;;3.80;86.00;;;;;;5034170;28;20045;-84
2022/01/16 12:51:53;;;;;;;44.08;26.88;;;3.80;86.00;;;;;;5032179;28;20048;-84
2022/01/16 12:54:26;;;;;;;39.58;25.90;;;3.90;86.10;;;;;;5034404;28;20045;-83
2022/01/16 12:56:55;;;;;;;45.65;26.55;;;3.90;86.10;;;;;;5033358;28;20520;-84
2022/01/16 12:59:43;;;;;;;42.05;27.00;;;3.90;86.10;;;;;;5034144;28;20430;-86
2022/01/16 13:02:11;;;;;;;40.55;25.65;;;4.00;86.20;;;;;;5034287;28;20047;-84
2022/01/16 13:04:43;;;;;;;39.63;25.80;;;4.00;86.20;;;;;;5034100;28;20483;-85
2022/01/16 13:07:32;;;;;;;40.67;25.52;;;4.00;86.20;;;;;;5033953;28;20037;-85
2022/01/16 13:10:00;;;;;;;38.22;25.38;;;4.00;86.20;;;;;;5032946;28;20057;-85
2022/01/16 13:12:29;;;;;;;43.22;26.10;;;4.10;86.20;;;;;;5033745;28;20049;-84
2022/01/16 13:15:00;;;;;;;41.97;25.90;;;4.10;86.10;;;;;;5033830;28;20091;-84
2022/01/16 13:17:32;;;;;;;41.28;25.02;;;4.20;86.10;;;;;;5033535;28;20053;-84
2022/01/16 13:20:02;;;;;;;36.47;24.08;;;4.10;86.10;;;;;;5033936;28;20091;-84
2022/01/16 13:22:31;;;;;;;41.65;26.17;;;4.20;86.00;;;;;;5034105;28;20484;-84
2022/01/16 13:25:07;;;;;;;37.00;24.40;;;4.20;86.00;;;;;;5032293;28;20493;-84
2022/01/16 13:27:40;;;;;;;39.10;23.80;;;4.20;86.00;;;;;;5033398;28;20104;-84
2022/01/16 13:30:16;;;;;;;38.28;24.60;;;4.20;85.90;;;;;;5033713;28;20045;-85
2022/01/16 13:32:44;;;;;;;38.70;24.45;;;4.20;85.90;;;;;;5033215;28;20144;-85
2022/01/16 13:35:24;;;;;;;34.33;23.92;;;4.30;85.90;;;;;;5033620;28;20037;-84
2022/01/16 13:37:54;;;;;;;36.65;23.80;;;4.30;85.80;;;;;;5033750;28;20505;-84